Impacts TAF Board
For situational awareness. Not to be used for flight planning purposes.
IDs:

KAUS - Austin/Bergstrom Int, TX, US

Issued at 1720 UTC 02 Oct 2022
Updated at 1901 UTC 02 Oct 2022
Potential Impact None Slight Moderate High
Time1853Z 02/20Z 02/21Z 02/22Z 02/23Z 03/00Z 03/01Z 03/02Z 03/03Z 03/04Z 03/05Z 03/06Z 03/07Z 03/08Z>>
Type OBS PRVL PRVL PRVL PRVL PRVL PRVL PRVL PRVL PRVL PRVL PRVL PRVL PRVL
VIS 10 >6 >6 >6 >6 >6 >6 >6 >6 >6 >6 >6 >6 >6
CIG 250 -- -- -- -- -- -- -- -- -- -- -- -- --
Cover BKN SCT SCT SCT SCT SCT SCT SCT SCT SCT SCT SCT SCT SCT
FltCat VFR VFR VFR VFR VFR VFR VFR VFR VFR VFR VFR VFR VFR VFR
WX -- -- -- -- -- -- -- -- -- -- -- -- -- --
WDir 350 60 60 60 60 60 60 60 60 60 60 60 60 60
WSpd 5 5 5 5 5 5 5 5 5 5 5 5 5 5
WGst -- -- -- -- -- -- -- -- -- -- -- -- -- --
WSHgt -- -- -- -- -- -- -- -- -- -- -- -- -- --
WSDir -- -- -- -- -- -- -- -- -- -- -- -- -- --
WSSpd -- -- -- -- -- -- -- -- -- -- -- -- -- --
R18/36
XWnd -1 4 4 4 4 4 4 4 4 4 4 4 4 4
HWnd -5 -2 -2 -2 -2 -2 -2 -2 -2 -2 -2 -2 -2 -2
Raw TAF
KAUS 021720Z 0218/0324 06005KT P6SM SCT250

Raw METAR
KAUS 021853Z 35005KT 10SM FEW200 BKN250 28/10 A3013 RMK AO2 SLP195 T02830100
KAUS 021753Z 35007KT 10SM BKN250 27/11 A3015 RMK AO2 SLP205 T02670111 10272 20089 58012
KAUS 021653Z 00000KT 10SM FEW250 25/12 A3018 RMK AO2 SLP213 T02500122

METAR Board
Radar Display
Forecast Discussion
For situational awareness. Not to be used for flight planning purposes.